sensor_id;sensor_type;location;lat;lon;timestamp;pressure;altitude;pressure_sealevel;temperature;humidity
76424;BME280;65257;52.104;4.268;2023-07-24T00:02:03;100235.25;;;18.14;100.00
76424;BME280;65257;52.104;4.268;2023-07-24T00:04:30;100215.44;;;18.07;100.00
76424;BME280;65257;52.104;4.268;2023-07-24T00:07:05;100220.56;;;18.14;100.00
76424;BME280;65257;52.104;4.268;2023-07-24T00:09:31;100211.91;;;18.15;100.00
76424;BME280;65257;52.104;4.268;2023-07-24T00:11:57;100215.38;;;18.16;100.00
76424;BME280;65257;52.104;4.268;2023-07-24T00:14:22;100215.41;;;18.11;100.00
76424;BME280;65257;52.104;4.268;2023-07-24T00:16:50;100199.91;;;18.05;100.00
76424;BME280;65257;52.104;4.268;2023-07-24T00:19:16;100206.88;;;17.97;100.00
76424;BME280;65257;52.104;4.268;2023-07-24T00:21:41;100206.88;;;17.97;100.00
76424;BME280;65257;52.104;4.268;2023-07-24T00:24:06;100207.72;;;17.99;100.00
76424;BME280;65257;52.104;4.268;2023-07-24T00:26:32;100208.56;;;18.01;100.00
76424;BME280;65257;52.104;4.268;2023-07-24T00:28:59;100196.47;;;18.03;100.00
76424;BME280;65257;52.104;4.268;2023-07-24T00:31:24;100195.69;;;17.89;100.00
76424;BME280;65257;52.104;4.268;2023-07-24T00:33:49;100193.06;;;17.92;100.00
76424;BME280;65257;52.104;4.268;2023-07-24T00:36:15;100189.66;;;17.86;100.00
76424;BME280;65257;52.104;4.268;2023-07-24T00:38:40;100189.63;;;17.87;100.00
76424;BME280;65257;52.104;4.268;2023-07-24T00:41:08;100193.06;;;17.92;100.00
76424;BME280;65257;52.104;4.268;2023-07-24T00:43:34;100194.78;;;17.96;100.00
76424;BME280;65257;52.104;4.268;2023-07-24T00:46:00;100187.03;;;17.93;100.00
76424;BME280;65257;52.104;4.268;2023-07-24T00:48:26;100176.72;;;17.86;100.00
76424;BME280;65257;52.104;4.268;2023-07-24T00:50:51;100182.75;;;17.86;100.00
76424;BME280;65257;52.104;4.268;2023-07-24T00:53:17;100168.97;;;17.81;100.00
76424;BME280;65257;52.104;4.268;2023-07-24T00:55:44;100171.53;;;17.86;100.00
76424;BME280;65257;52.104;4.268;2023-07-24T00:58:15;100177.56;;;17.89;100.00
76424;BME280;65257;52.104;4.268;2023-07-24T01:00:44;100181.91;;;17.84;100.00
76424;BME280;65257;52.104;4.268;2023-07-24T01:03:10;100183.59;;;17.91;100.00
76424;BME280;65257;52.104;4.268;2023-07-24T01:05:37;100175.84;;;17.82;100.00
76424;BME280;65257;52.104;4.268;2023-07-24T01:08:04;100193.09;;;17.89;100.00
76424;BME280;65257;52.104;4.268;2023-07-24T01:10:30;100177.56;;;17.89;100.00
76424;BME280;65257;52.104;4.268;2023-07-24T01:13:05;100180.09;;;17.95;100.00
76424;BME280;65257;52.104;4.268;2023-07-24T01:15:55;100167.22;;;17.89;100.00
76424;BME280;65257;52.104;4.268;2023-07-24T01:18:29;100166.31;;;17.96;100.00
76424;BME280;65257;52.104;4.268;2023-07-24T01:20:57;100166.28;;;17.98;100.00
76424;BME280;65257;52.104;4.268;2023-07-24T01:26:01;100172.34;;;17.95;100.00
76424;BME280;65257;52.104;4.268;2023-07-24T01:28:29;100172.31;;;18.04;100.00
76424;BME280;65257;52.104;4.268;2023-07-24T01:30:55;100164.50;;;18.06;100.00
76424;BME280;65257;52.104;4.268;2023-07-24T01:33:22;100167.06;;;18.13;100.00
76424;BME280;65257;52.104;4.268;2023-07-24T01:35:59;100172.28;;;18.07;100.00
76424;BME280;65257;52.104;4.268;2023-07-24T01:38:26;100169.69;;;18.06;100.00
76424;BME280;65257;52.104;4.268;2023-07-24T01:40:56;100172.28;;;18.07;100.00
76424;BME280;65257;52.104;4.268;2023-07-24T01:43:22;100161.06;;;18.07;100.00
76424;BME280;65257;52.104;4.268;2023-07-24T01:45:48;100158.47;;;18.07;100.00
76424;BME280;65257;52.104;4.268;2023-07-24T01:48:13;100156.75;;;18.07;100.00
76424;BME280;65257;52.104;4.268;2023-07-24T01:50:39;100163.66;;;18.05;100.00
76424;BME280;65257;52.104;4.268;2023-07-24T01:53:04;100165.38;;;18.03;100.00
76424;BME280;65257;52.104;4.268;2023-07-24T01:55:30;100167.09;;;18.07;100.00
76424;BME280;65257;52.104;4.268;2023-07-24T01:57:55;100167.16;;;17.97;100.00
76424;BME280;65257;52.104;4.268;2023-07-24T02:00:23;100148.25;;;17.84;100.00
76424;BME280;65257;52.104;4.268;2023-07-24T02:02:49;100137.88;;;17.87;100.00
76424;BME280;65257;52.104;4.268;2023-07-24T02:05:14;100133.63;;;17.82;100.00
76424;BME280;65257;52.104;4.268;2023-07-24T02:07:42;100136.19;;;17.83;100.00
76424;BME280;65257;52.104;4.268;2023-07-24T02:10:11;100141.34;;;17.83;100.00
76424;BME280;65257;52.104;4.268;2023-07-24T02:12:36;100136.19;;;17.83;100.00
76424;BME280;65257;52.104;4.268;2023-07-24T02:15:05;100143.09;;;17.81;100.00
76424;BME280;65257;52.104;4.268;2023-07-24T02:17:31;100150.03;;;17.76;100.00
76424;BME280;65257;52.104;4.268;2023-07-24T02:19:56;100143.13;;;17.78;100.00
76424;BME280;65257;52.104;4.268;2023-07-24T02:22:25;100148.25;;;17.84;100.00
76424;BME280;65257;52.104;4.268;2023-07-24T02:24:50;100141.38;;;17.80;100.00
76424;BME280;65257;52.104;4.268;2023-07-24T02:27:27;100129.25;;;17.85;100.00
76424;BME280;65257;52.104;4.268;2023-07-24T02:29:52;100135.34;;;17.81;100.00
76424;BME280;65257;52.104;4.268;2023-07-24T02:32:18;100141.38;;;17.80;100.00
76424;BME280;65257;52.104;4.268;2023-07-24T02:34:50;100147.44;;;17.76;100.00
76424;BME280;65257;52.104;4.268;2023-07-24T02:37:19;100141.38;;;17.80;100.00
76424;BME280;65257;52.104;4.268;2023-07-24T02:39:45;100130.19;;;17.72;100.00
76424;BME280;65257;52.104;4.268;2023-07-24T02:42:11;100130.22;;;17.65;100.00
76424;BME280;65257;52.104;4.268;2023-07-24T02:44:39;100125.91;;;17.71;100.00
76424;BME280;65257;52.104;4.268;2023-07-24T02:47:04;100125.91;;;17.71;100.00
76424;BME280;65257;52.104;4.268;2023-07-24T02:49:30;100137.13;;;17.72;100.00
76424;BME280;65257;52.104;4.268;2023-07-24T02:51:55;100118.13;;;17.70;100.00
76424;BME280;65257;52.104;4.268;2023-07-24T02:54:21;100119.81;;;17.75;100.00
76424;BME280;65257;52.104;4.268;2023-07-24T02:56:46;100102.66;;;17.59;100.00
76424;BME280;65257;52.104;4.268;2023-07-24T02:59:17;100117.34;;;17.57;100.00
76424;BME280;65257;52.104;4.268;2023-07-24T03:01:43;100121.66;;;17.61;100.00
76424;BME280;65257;52.104;4.268;2023-07-24T03:04:09;100121.63;;;17.63;100.00
76424;BME280;65257;52.104;4.268;2023-07-24T03:06:34;100130.25;;;17.63;100.00
76424;BME280;65257;52.104;4.268;2023-07-24T03:09:00;100124.25;;;17.55;100.00
76424;BME280;65257;52.104;4.268;2023-07-24T03:11:29;100125.94;;;17.65;100.00
76424;BME280;65257;52.104;4.268;2023-07-24T03:13:55;100139.72;;;17.67;100.00
76424;BME280;65257;52.104;4.268;2023-07-24T03:16:20;100141.44;;;17.68;100.00
76424;BME280;65257;52.104;4.268;2023-07-24T03:18:46;100137.94;;;17.75;100.00
76424;BME280;65257;52.104;4.268;2023-07-24T03:21:14;100137.09;;;17.75;100.00
76424;BME280;65257;52.104;4.268;2023-07-24T03:23:43;100125.84;;;17.79;100.00
76424;BME280;65257;52.104;4.268;2023-07-24T03:26:09;100124.16;;;17.76;100.00
76424;BME280;65257;52.104;4.268;2023-07-24T03:28:34;100123.28;;;17.79;100.00
76424;BME280;65257;52.104;4.268;2023-07-24T03:30:59;100125.88;;;17.73;100.00
76424;BME280;65257;52.104;4.268;2023-07-24T03:33:25;100129.31;;;17.78;100.00
76424;BME280;65257;52.104;4.268;2023-07-24T03:35:50;100131.81;;;17.90;100.00
76424;BME280;65257;52.104;4.268;2023-07-24T03:38:18;100121.47;;;17.91;100.00
76424;BME280;65257;52.104;4.268;2023-07-24T03:40:44;100120.56;;;17.95;100.00
76424;BME280;65257;52.104;4.268;2023-07-24T03:43:14;100124.84;;;17.98;100.00
76424;BME280;65257;52.104;4.268;2023-07-24T03:45:45;100120.56;;;17.98;100.00
76424;BME280;65257;52.104;4.268;2023-07-24T03:48:10;100121.44;;;17.96;100.00
76424;BME280;65257;52.104;4.268;2023-07-24T03:50:35;100136.09;;;17.95;100.00
76424;BME280;65257;52.104;4.268;2023-07-24T03:53:04;100130.94;;;17.92;100.00
76424;BME280;65257;52.104;4.268;2023-07-24T03:55:36;100123.22;;;17.89;100.00
76424;BME280;65257;52.104;4.268;2023-07-24T03:58:02;100132.66;;;17.96;100.00
76424;BME280;65257;52.104;4.268;2023-07-24T04:00:28;100117.97;;;17.97;100.00
76424;BME280;65257;52.104;4.268;2023-07-24T04:02:56;100123.16;;;17.95;100.00
76424;BME280;65257;52.104;4.268;2023-07-24T04:05:22;100122.31;;;17.90;100.00
76424;BME280;65257;52.104;4.268;2023-07-24T04:07:50;100130.13;;;17.86;100.00
76424;BME280;65257;52.104;4.268;2023-07-24T04:10:19;100132.72;;;17.84;100.00
76424;BME280;65257;52.104;4.268;2023-07-24T04:12:48;100132.75;;;17.81;100.00
76424;BME280;65257;52.104;4.268;2023-07-24T04:15:14;100132.69;;;17.87;100.00
76424;BME280;65257;52.104;4.268;2023-07-24T04:17:39;100148.16;;;17.99;100.00
76424;BME280;65257;52.104;4.268;2023-07-24T04:20:07;100146.53;;;17.86;100.00
76424;BME280;65257;52.104;4.268;2023-07-24T04:22:32;100147.38;;;17.85;100.00
76424;BME280;65257;52.104;4.268;2023-07-24T04:24:58;100150.84;;;17.86;100.00
76424;BME280;65257;52.104;4.268;2023-07-24T04:27:23;100162.06;;;17.83;100.00
76424;BME280;65257;52.104;4.268;2023-07-24T04:29:48;100170.69;;;17.82;100.00
76424;BME280;65257;52.104;4.268;2023-07-24T04:32:17;100175.91;;;17.79;100.00
76424;BME280;65257;52.104;4.268;2023-07-24T04:34:42;100182.78;;;17.77;100.00
76424;BME280;65257;52.104;4.268;2023-07-24T04:37:08;100198.38;;;17.71;100.00
76424;BME280;65257;52.104;4.268;2023-07-24T04:39:34;100200.94;;;17.70;100.00
76424;BME280;65257;52.104;4.268;2023-07-24T04:42:03;100206.09;;;17.73;100.00
76424;BME280;65257;52.104;4.268;2023-07-24T04:44:29;100209.56;;;17.67;100.00
76424;BME280;65257;52.104;4.268;2023-07-24T04:46:55;100212.16;;;17.70;100.00
76424;BME280;65257;52.104;4.268;2023-07-24T04:49:21;100209.56;;;17.67;100.00
76424;BME280;65257;52.104;4.268;2023-07-24T04:51:50;100215.59;;;17.72;100.00
76424;BME280;65257;52.104;4.268;2023-07-24T04:54:25;100226.84;;;17.65;100.00
76424;BME280;65257;52.104;4.268;2023-07-24T04:56:50;100225.09;;;17.70;100.00
76424;BME280;65257;52.104;4.268;2023-07-24T04:59:19;100244.06;;;17.71;100.00
76424;BME280;65257;52.104;4.268;2023-07-24T05:01:45;100244.94;;;17.65;100.00
76424;BME280;65257;52.104;4.268;2023-07-24T05:04:11;100247.53;;;17.65;100.00
76424;BME280;65257;52.104;4.268;2023-07-24T05:06:37;100250.13;;;17.71;100.00
76424;BME280;65257;52.104;4.268;2023-07-24T05:09:03;100254.44;;;17.68;100.00
76424;BME280;65257;52.104;4.268;2023-07-24T05:11:29;100257.88;;;17.70;100.00
76424;BME280;65257;52.104;4.268;2023-07-24T05:13:58;100255.28;;;17.74;100.00
76424;BME280;65257;52.104;4.268;2023-07-24T05:16:23;100264.78;;;17.77;100.00
76424;BME280;65257;52.104;4.268;2023-07-24T05:18:48;100269.94;;;17.74;100.00
76424;BME280;65257;52.104;4.268;2023-07-24T05:21:17;100281.19;;;17.68;100.00
76424;BME280;65257;52.104;4.268;2023-07-24T05:23:42;100271.69;;;17.72;100.00
76424;BME280;65257;52.104;4.268;2023-07-24T05:26:08;100280.31;;;17.74;100.00
76424;BME280;65257;52.104;4.268;2023-07-24T05:28:33;100270.81;;;17.74;100.00
76424;BME280;65257;52.104;4.268;2023-07-24T05:31:05;100276.84;;;17.73;100.00
76424;BME280;65257;52.104;4.268;2023-07-24T05:33:31;100274.25;;;17.79;100.00
76424;BME280;65257;52.104;4.268;2023-07-24T05:36:01;100280.28;;;17.77;100.00
76424;BME280;65257;52.104;4.268;2023-07-24T05:38:27;100270.78;;;17.83;100.00
76424;BME280;65257;52.104;4.268;2023-07-24T05:41:01;100275.94;;;17.86;100.00
76424;BME280;65257;52.104;4.268;2023-07-24T05:43:27;100277.66;;;17.87;100.00
76424;BME280;65257;52.104;4.268;2023-07-24T05:45:56;100281.13;;;17.89;100.00
76424;BME280;65257;52.104;4.268;2023-07-24T05:48:22;100284.56;;;17.85;100.00
76424;BME280;65257;52.104;4.268;2023-07-24T05:50:48;100288.03;;;17.83;100.00
76424;BME280;65257;52.104;4.268;2023-07-24T05:53:14;100288.00;;;17.90;100.00
76424;BME280;65257;52.104;4.268;2023-07-24T05:55:39;100294.91;;;17.85;100.00
76424;BME280;65257;52.104;4.268;2023-07-24T05:58:05;100295.75;;;17.93;100.00
76424;BME280;65257;52.104;4.268;2023-07-24T06:00:31;100296.59;;;17.92;100.00
76424;BME280;65257;52.104;4.268;2023-07-24T06:02:56;100300.94;;;17.95;100.00
76424;BME280;65257;52.104;4.268;2023-07-24T06:05:22;100299.22;;;17.89;100.00
76424;BME280;65257;52.104;4.268;2023-07-24T06:07:47;100303.56;;;17.84;100.00
76424;BME280;65257;52.104;4.268;2023-07-24T06:10:15;100305.28;;;17.85;100.00
76424;BME280;65257;52.104;4.268;2023-07-24T06:12:40;100312.19;;;17.83;100.00
76424;BME280;65257;52.104;4.268;2023-07-24T06:15:10;100317.38;;;17.77;100.00
76424;BME280;65257;52.104;4.268;2023-07-24T06:17:35;100331.19;;;17.76;100.00
76424;BME280;65257;52.104;4.268;2023-07-24T06:20:05;100333.75;;;17.81;100.00
76424;BME280;65257;52.104;4.268;2023-07-24T06:22:33;100343.25;;;17.86;100.00
76424;BME280;65257;52.104;4.268;2023-07-24T06:25:02;100346.69;;;17.91;100.00
76424;BME280;65257;52.104;4.268;2023-07-24T06:27:30;100352.69;;;18.01;100.00
76424;BME280;65257;52.104;4.268;2023-07-24T06:29:56;100346.63;;;18.03;100.00
76424;BME280;65257;52.104;4.268;2023-07-24T06:32:24;100344.03;;;18.06;100.00
76424;BME280;65257;52.104;4.268;2023-07-24T06:34:49;100338.88;;;18.05;100.00
76424;BME280;65257;52.104;4.268;2023-07-24T06:37:18;100335.41;;;18.09;100.00
76424;BME280;65257;52.104;4.268;2023-07-24T06:39:43;100319.84;;;18.13;100.00
76424;BME280;65257;52.104;4.268;2023-07-24T06:42:11;100322.44;;;18.13;100.00
76424;BME280;65257;52.104;4.268;2023-07-24T06:44:40;100321.53;;;18.22;100.00
76424;BME280;65257;52.104;4.268;2023-07-24T06:47:05;100324.09;;;18.27;100.00
76424;BME280;65257;52.104;4.268;2023-07-24T06:49:34;100311.97;;;18.41;100.00
76424;BME280;65257;52.104;4.268;2023-07-24T06:51:59;100302.44;;;18.50;100.00
76424;BME280;65257;52.104;4.268;2023-07-24T06:54:24;100305.78;;;18.66;100.00
76424;BME280;65257;52.104;4.268;2023-07-24T06:56:50;100300.59;;;18.67;100.00
76424;BME280;65257;52.104;4.268;2023-07-24T06:59:20;100298.03;;;18.60;100.00
76424;BME280;65257;52.104;4.268;2023-07-24T07:01:55;100298.84;;;18.71;100.00
76424;BME280;65257;52.104;4.268;2023-07-24T07:04:20;100297.84;;;18.92;100.00
76424;BME280;65257;52.104;4.268;2023-07-24T07:06:45;100297.66;;;19.11;100.00
76424;BME280;65257;52.104;4.268;2023-07-24T07:09:11;100288.09;;;19.18;100.00
76424;BME280;65257;52.104;4.268;2023-07-24T07:11:36;100291.41;;;19.35;100.00
76424;BME280;65257;52.104;4.268;2023-07-24T07:14:05;100297.53;;;19.26;100.00
76424;BME280;65257;52.104;4.268;2023-07-24T07:16:37;100293.28;;;19.16;100.00
76424;BME280;65257;52.104;4.268;2023-07-24T07:19:03;100292.44;;;19.14;100.00
76424;BME280;65257;52.104;4.268;2023-07-24T07:21:28;100294.06;;;19.27;100.00
76424;BME280;65257;52.104;4.268;2023-07-24T07:23:54;100293.19;;;19.30;100.00
76424;BME280;65257;52.104;4.268;2023-07-24T07:26:20;100301.56;;;19.61;100.00
76424;BME280;65257;52.104;4.268;2023-07-24T07:28:54;100291.97;;;19.66;100.00
76424;BME280;65257;52.104;4.268;2023-07-24T07:31:20;100282.53;;;20.33;100.00
76424;BME280;65257;52.104;4.268;2023-07-24T07:33:48;100260.09;;;20.84;100.00
76424;BME280;65257;52.104;4.268;2023-07-24T07:36:13;100237.00;;;21.18;100.00
76424;BME280;65257;52.104;4.268;2023-07-24T07:38:54;100226.22;;;20.89;100.00
76424;BME280;65257;52.104;4.268;2023-07-24T07:41:19;100227.75;;;20.99;100.00
76424;BME280;65257;52.104;4.268;2023-07-24T07:43:45;100219.22;;;20.91;100.00
76424;BME280;65257;52.104;4.268;2023-07-24T07:46:10;100208.84;;;21.82;100.00
76424;BME280;65257;52.104;4.268;2023-07-24T07:48:36;100203.13;;;22.08;100.00
76424;BME280;65257;52.104;4.268;2023-07-24T07:51:08;100187.59;;;22.77;100.00
76424;BME280;65257;52.104;4.268;2023-07-24T07:53:33;100182.56;;;22.68;100.00
76424;BME280;65257;52.104;4.268;2023-07-24T07:55:59;100175.13;;;23.82;100.00
76424;BME280;65257;52.104;4.268;2023-07-24T07:58:27;100176.00;;;23.20;100.00
76424;BME280;65257;52.104;4.268;2023-07-24T08:00:52;100182.38;;;22.77;100.00
76424;BME280;65257;52.104;4.268;2023-07-24T08:03:18;100189.59;;;22.66;100.00
76424;BME280;65257;52.104;4.268;2023-07-24T08:05:44;100180.28;;;22.90;100.00
76424;BME280;65257;52.104;4.268;2023-07-24T08:08:09;100158.97;;;23.06;100.00
76424;BME280;65257;52.104;4.268;2023-07-24T08:10:37;100172.59;;;23.18;100.00
76424;BME280;65257;52.104;4.268;2023-07-24T08:13:06;100165.81;;;23.11;100.00
76424;BME280;65257;52.104;4.268;2023-07-24T08:15:37;100210.22;;;23.43;100.00
76424;BME280;65257;52.104;4.268;2023-07-24T08:18:11;100244.75;;;21.67;100.00
76424;BME280;65257;52.104;4.268;2023-07-24T08:20:37;100248.19;;;21.69;100.00
76424;BME280;65257;52.104;4.268;2023-07-24T08:23:04;100248.06;;;21.29;100.00
76424;BME280;65257;52.104;4.268;2023-07-24T08:25:30;100244.97;;;21.09;100.00
76424;BME280;65257;52.104;4.268;2023-07-24T08:27:55;100231.84;;;21.15;100.00
76424;BME280;65257;52.104;4.268;2023-07-24T08:30:24;100223.44;;;21.48;100.00
76424;BME280;65257;52.104;4.268;2023-07-24T08:32:52;100221.09;;;22.19;100.00
76424;BME280;65257;52.104;4.268;2023-07-24T08:35:19;100223.78;;;22.89;100.00
76424;BME280;65257;52.104;4.268;2023-07-24T08:37:44;100227.28;;;22.88;100.00
76424;BME280;65257;52.104;4.268;2023-07-24T08:40:13;100227.00;;;23.00;100.00
76424;BME280;65257;52.104;4.268;2023-07-24T08:42:42;100222.94;;;22.52;100.00
76424;BME280;65257;52.104;4.268;2023-07-24T08:45:13;100230.09;;;22.44;100.00
76424;BME280;65257;52.104;4.268;2023-07-24T08:47:42;100238.84;;;22.78;100.00
76424;BME280;65257;52.104;4.268;2023-07-24T08:50:11;100236.63;;;22.63;100.00
76424;BME280;65257;52.104;4.268;2023-07-24T08:52:40;100232.13;;;22.70;100.00
76424;BME280;65257;52.104;4.268;2023-07-24T08:55:10;100234.22;;;22.16;100.00
76424;BME280;65257;52.104;4.268;2023-07-24T08:57:36;100233.59;;;23.78;100.00
76424;BME280;65257;52.104;4.268;2023-07-24T09:00:02;100230.00;;;23.82;100.00
76424;BME280;65257;52.104;4.268;2023-07-24T09:02:33;100222.00;;;24.17;100.00
76424;BME280;65257;52.104;4.268;2023-07-24T09:05:05;100235.66;;;23.67;100.00
76424;BME280;65257;52.104;4.268;2023-07-24T09:07:34;100226.09;;;23.01;100.00
76424;BME280;65257;52.104;4.268;2023-07-24T09:09:59;100220.59;;;22.02;100.00
76424;BME280;65257;52.104;4.268;2023-07-24T09:12:27;100203.47;;;21.49;100.00
76424;BME280;65257;52.104;4.268;2023-07-24T09:15:16;100187.03;;;21.45;100.00
76424;BME280;65257;52.104;4.268;2023-07-24T09:17:54;100161.50;;;21.21;100.00
76424;BME280;65257;52.104;4.268;2023-07-24T09:20:20;100168.06;;;20.93;100.00
76424;BME280;65257;52.104;4.268;2023-07-24T09:22:53;100159.75;;;20.71;100.00
76424;BME280;65257;52.104;4.268;2023-07-24T09:25:34;100150.13;;;20.24;100.00
76424;BME280;65257;52.104;4.268;2023-07-24T09:27:59;100135.53;;;20.14;100.00
76424;BME280;65257;52.104;4.268;2023-07-24T09:30:25;100137.25;;;20.15;100.00
76424;BME280;65257;52.104;4.268;2023-07-24T09:32:56;100142.78;;;19.91;100.00
76424;BME280;65257;52.104;4.268;2023-07-24T09:35:22;100135.69;;;20.05;100.00
76424;BME280;65257;52.104;4.268;2023-07-24T09:38:06;100144.63;;;19.83;100.00
76424;BME280;65257;52.104;4.268;2023-07-24T09:40:48;100154.38;;;19.67;100.00
76424;BME280;65257;52.104;4.268;2023-07-24T09:43:15;100172.53;;;19.69;100.00
76424;BME280;65257;52.104;4.268;2023-07-24T09:45:42;100191.66;;;19.62;100.00
76424;BME280;65257;52.104;4.268;2023-07-24T09:48:09;100207.84;;;19.80;100.00
76424;BME280;65257;52.104;4.268;2023-07-24T09:50:38;100206.38;;;20.27;100.00
76424;BME280;65257;52.104;4.268;2023-07-24T09:56:03;100180.47;;;20.77;100.00
76424;BME280;65257;52.104;4.268;2023-07-24T09:58:33;100171.53;;;21.39;100.00
76424;BME280;65257;52.104;4.268;2023-07-24T10:01:01;100167.22;;;21.79;100.00
76424;BME280;65257;52.104;4.268;2023-07-24T10:03:27;100165.50;;;21.37;100.00
76424;BME280;65257;52.104;4.268;2023-07-24T10:05:53;100169.41;;;21.59;100.00
76424;BME280;65257;52.104;4.268;2023-07-24T10:08:19;100162.78;;;21.84;100.00
76424;BME280;65257;52.104;4.268;2023-07-24T10:10:45;100154.31;;;22.50;100.00
76424;BME280;65257;52.104;4.268;2023-07-24T10:13:21;100126.72;;;22.75;100.00
76424;BME280;65257;52.104;4.268;2023-07-24T10:15:48;100131.56;;;22.90;100.00
76424;BME280;65257;52.104;4.268;2023-07-24T10:18:16;100137.91;;;23.13;100.00
76424;BME280;65257;52.104;4.268;2023-07-24T10:20:45;100142.72;;;23.28;100.00
76424;BME280;65257;52.104;4.268;2023-07-24T10:23:16;100139.44;;;23.20;100.00
76424;BME280;65257;52.104;4.268;2023-07-24T10:25:44;100134.72;;;24.21;100.00
76424;BME280;65257;52.104;4.268;2023-07-24T10:28:12;100150.41;;;23.63;100.00
76424;BME280;65257;52.104;4.268;2023-07-24T10:30:41;100195.06;;;24.14;100.00
76424;BME280;65257;52.104;4.268;2023-07-24T10:33:17;100207.06;;;23.30;100.00
76424;BME280;65257;52.104;4.268;2023-07-24T10:35:45;100199.00;;;23.39;100.00
76424;BME280;65257;52.104;4.268;2023-07-24T10:38:20;100205.47;;;23.25;100.00
76424;BME280;65257;52.104;4.268;2023-07-24T10:41:01;100206.97;;;22.67;100.00
76424;BME280;65257;52.104;4.268;2023-07-24T10:43:29;100216.44;;;22.33;100.00
76424;BME280;65257;52.104;4.268;2023-07-24T10:45:58;100204.16;;;22.38;100.00
76424;BME280;65257;52.104;4.268;2023-07-24T10:48:29;100211.84;;;22.06;100.00
76424;BME280;65257;52.104;4.268;2023-07-24T10:50:57;100190.72;;;21.76;100.00
76424;BME280;65257;52.104;4.268;2023-07-24T10:53:23;100188.50;;;21.15;100.00
76424;BME280;65257;52.104;4.268;2023-07-24T10:55:51;100181.56;;;20.63;100.00
76424;BME280;65257;52.104;4.268;2023-07-24T10:58:17;100173.28;;;20.39;100.00
76424;BME280;65257;52.104;4.268;2023-07-24T11:00:44;100170.50;;;20.50;100.00
76424;BME280;65257;52.104;4.268;2023-07-24T11:03:13;100182.72;;;20.97;100.00
76424;BME280;65257;52.104;4.268;2023-07-24T11:05:43;100176.66;;;21.42;100.00
76424;BME280;65257;52.104;4.268;2023-07-24T11:08:14;100182.66;;;21.00;100.00
76424;BME280;65257;52.104;4.268;2023-07-24T11:10:48;100183.59;;;20.97;100.00
76424;BME280;65257;52.104;4.268;2023-07-24T11:13:15;100193.97;;;20.45;100.00
76424;BME280;65257;52.104;4.268;2023-07-24T11:15:44;100183.50;;;21.02;100.00
76424;BME280;65257;52.104;4.268;2023-07-24T11:18:09;100173.47;;;21.71;100.00
76424;BME280;65257;52.104;4.268;2023-07-24T11:20:44;100178.91;;;22.02;100.00
76424;BME280;65257;52.104;4.268;2023-07-24T11:23:13;100182.44;;;22.37;100.00
76424;BME280;65257;52.104;4.268;2023-07-24T11:25:39;100191.50;;;21.81;100.00
76424;BME280;65257;52.104;4.268;2023-07-24T11:28:06;100199.03;;;23.05;100.00
76424;BME280;65257;52.104;4.268;2023-07-24T11:30:32;100214.50;;;23.76;100.00
76424;BME280;65257;52.104;4.268;2023-07-24T11:33:00;100220.69;;;22.37;100.00
76424;BME280;65257;52.104;4.268;2023-07-24T11:35:27;100207.19;;;21.78;100.00
76424;BME280;65257;52.104;4.268;2023-07-24T11:37:52;100199.16;;;21.46;100.00
76424;BME280;65257;52.104;4.268;2023-07-24T11:43:05;100191.31;;;21.48;100.00
76424;BME280;65257;52.104;4.268;2023-07-24T11:45:31;100186.72;;;21.60;100.00
76424;BME280;65257;52.104;4.268;2023-07-24T11:48:09;100180.06;;;22.28;100.00
76424;BME280;65257;52.104;4.268;2023-07-24T11:50:42;100173.22;;;22.23;100.00
76424;BME280;65257;52.104;4.268;2023-07-24T11:53:28;100181.47;;;22.05;100.00
76424;BME280;65257;52.104;4.268;2023-07-24T11:55:55;100172.50;;;21.76;100.00
76424;BME280;65257;52.104;4.268;2023-07-24T11:58:21;100172.06;;;21.55;100.00
76424;BME280;65257;52.104;4.268;2023-07-24T12:00:49;100183.53;;;22.29;100.00
76424;BME280;65257;52.104;4.268;2023-07-24T12:03:26;100192.59;;;23.19;100.00
76424;BME280;65257;52.104;4.268;2023-07-24T12:05:52;100195.53;;;23.39;100.00
76424;BME280;65257;52.104;4.268;2023-07-24T12:08:29;100209.50;;;24.55;100.00
76424;BME280;65257;52.104;4.268;2023-07-24T12:11:04;100221.38;;;24.65;100.00
76424;BME280;65257;52.104;4.268;2023-07-24T12:13:29;100230.00;;;24.41;100.00
76424;BME280;65257;52.104;4.268;2023-07-24T12:15:57;100243.09;;;24.11;100.00
76424;BME280;65257;52.104;4.268;2023-07-24T12:18:28;100243.00;;;24.14;100.00
76424;BME280;65257;52.104;4.268;2023-07-24T12:20:57;100242.75;;;24.23;100.00
76424;BME280;65257;52.104;4.268;2023-07-24T12:23:25;100241.31;;;24.69;100.00
76424;BME280;65257;52.104;4.268;2023-07-24T12:25:51;100253.69;;;24.36;100.00
76424;BME280;65257;52.104;4.268;2023-07-24T12:28:16;100248.47;;;23.76;100.00
76424;BME280;65257;52.104;4.268;2023-07-24T12:30:42;100239.59;;;23.51;100.00
76424;BME280;65257;52.104;4.268;2023-07-24T12:33:08;100234.53;;;23.45;100.00
76424;BME280;65257;52.104;4.268;2023-07-24T12:35:37;100232.78;;;23.12;100.00
76424;BME280;65257;52.104;4.268;2023-07-24T12:38:02;100235.25;;;23.18;100.00
76424;BME280;65257;52.104;4.268;2023-07-24T12:40:29;100225.97;;;22.72;100.00
76424;BME280;65257;52.104;4.268;2023-07-24T12:42:54;100212.28;;;22.24;100.00
76424;BME280;65257;52.104;4.268;2023-07-24T12:45:19;100218.34;;;22.25;100.00
76424;BME280;65257;52.104;4.268;2023-07-24T12:47:45;100214.59;;;22.38;100.00
76424;BME280;65257;52.104;4.268;2023-07-24T12:50:10;100211.84;;;22.06;100.00
76424;BME280;65257;52.104;4.268;2023-07-24T12:52:36;100215.66;;;21.90;100.00